Tiempo atmosférico en la estación meteorológica de Alajar, Huelva (572 m.)



Fecha
DESCASC
Temp. máxima en grados centígrados (hora)
DESCASC
Temp. mínima en grados centígrados (hora)
DESCASC
Temp. media en grados centígrados
DESCASC
Racha de viento máxima en m/sg (hora)
DESCASC
Velocidad máxima media en intervalos de 10 minutos(hora)
DESCASC
Precipitaciones diarias en mm
DESCASC
Precipitaciones de 00:00 a 06:00 en mm
DESCASC
Precipitaciones de 06:00 a 12:00 en mm
DESCASC
Precipitaciones de 12:00 a 18:00 en mm
DESCASC
Precipitaciones de 18:00 a 24:00 en mm
DESCASC
15-08-2019 38.2 (16:40) 23.2 (08:30) 30.7 13.61 (02:00) 10 (01:30) 0 0 0 0 0
14-08-2019 36.5 (17:20) 19.4 (00:00) 27.9 12.5 (01:30) 8.89 (01:30) 0 0 0 0 0
13-08-2019 34.9 (16:10) 20.6 (00:00) 27.8 12.5 (03:20) 9.44 (03:20) 0 0 0 0 0
12-08-2019 29.3 (16:10) 14.1 (00:00) 21.7 19.17 (09:30) 12.78 (06:50) 0 0 0 0 0
11-08-2019 27 (16:30) 14.3 (00:00) 20.7 21.94 (07:00) 15.28 (07:10) 0 0 0 0 0
10-08-2019 33.3 (17:40) 18 (00:00) 25.6 14.17 (22:40) 10 (09:40) 0 0 0 0 0
09-08-2019 32.8 (14:40) 18.1 (00:00) 25.4 12.78 (01:00) 8.33 (01:50) 0 0 0 0 0
08-08-2019 35.3 (16:10) 19.9 (00:00) 27.6 10.56 (23:40) 6.94 (23:50) 0 0 0 0 0
07-08-2019 30.3 (16:20) 19.6 (00:00) 24.9 11.11 (18:40) 7.5 (18:40) 0 0 0 0 0
06-08-2019 35.5 (17:10) 20.1 (00:00) 27.8 12.78 (01:40) 9.17 (01:40) 0 0 0 0 0
05-08-2019 35.9 (16:40) 19.4 (00:00) 27.7 14.44 (00:30) 9.17 (00:30) 0 0 0 0 0
04-08-2019 34.7 (17:40) 19.5 (00:00) 27.1 13.89 (23:10) 9.17 (23:40) 0 0 0 0 0
03-08-2019 34.7 (17:20) 19.7 (00:00) 27.2 11.39 (01:10) 7.78 (01:00) 0 0 0 0 0
02-08-2019 35.8 (16:40) 20.7 (00:00) 28.3 14.44 (00:30) 8.89 (02:20) 0 0 0 0 0
01-08-2019 34.5 (18:00) 18.7 (00:00) 26.6 13.06 (23:40) 8.06 (23:50) 0 0 0 0 0
31-07-2019 36.2 (17:10) 21.4 (00:00) 28.8 13.33 (01:40) 9.17 (01:50) 0 0 0 0 0
30-07-2019 31.8 (18:10) 15.1 (00:00) 23.4 19.72 (02:30) 12.78 (05:50) 0 0 0 0 0
29-07-2019 30.6 (16:00) 18 (00:00) 24.3 -- (--) -- (--) 0 0 0 0 0
28-07-2019 31.9 (16:40) 16.2 (00:00) 24.1 11.67 (03:50) 8.33 (04:00) 0 0 0 0 0
27-07-2019 23.4 (15:40) 14 (00:00) 18.7 13.61 (08:20) 8.06 (03:50) 0.6 0 0 0.6 0
26-07-2019 27.8 (17:30) 15.2 (00:00) 21.5 16.67 (01:40) 11.39 (02:40) 0 0 0 0 0
25-07-2019 34.5 (14:50) 19.5 (00:00) 27 14.72 (23:30) 10.28 (23:50) 0 0 0 0 0
24-07-2019 36.9 (16:50) 21.7 (00:00) 29.3 10 (02:00) 6.39 (02:00) 0 0 0 0 0
23-07-2019 36.6 (16:50) 19.4 (00:00) 28 8.89 (17:30) 5 (17:00) 0 0 0 0 0
22-07-2019 37.5 (16:00) 19 (00:00) 28.3 8.89 (17:00) 5.28 (00:20) 0 0 0 0 0
21-07-2019 38.3 (16:20) 22.5 (00:00) 30.4 15.28 (01:30) 9.44 (01:30) 0 0 0 0 0
20-07-2019 37.6 (16:50) 20.3 (00:00) 28.9 12.78 (01:10) 8.61 (23:59) 0 0 0 0 0
19-07-2019 38.5 (17:30) 23.8 (00:00) 31.1 11.67 (02:30) 8.33 (02:20) 0 0 0 0 0

Gráficas

Temp. máximas Temp. mínimas Temp. medias Precipitaciones Rachas de viento máximas Velocidades máximas media en intervalos de 10 minutos

Datos horarios

Fecha y hora oficial Temperatura (ºC) Velocidad del viento (km/h) Dirección del viento Racha (km/h) Dirección de racha Precipitación (mm) Presión (hPa) Tendencia (hPa) Humedad (%)
2019-08-17 23:00:00 28.6 21 Norte 27 Norte 0 948.8 0.8 19
2019-08-17 22:00:00 28.8 13 Norte 22 Norte 0 948.6 0.3 22
2019-08-17 21:00:00 31.7 13 Norte 20 Norte 0 948.3 -0.3 18
2019-08-17 20:00:00 35.3 11 Oeste 26 Sudoeste 0 948 -1 18
2019-08-17 19:00:00 36.4 10 Sudoeste 31 Noroeste 0 948.3 -1.1 18
2019-08-17 18:00:00 36.4 12 Noroeste 27 Sudoeste 0 948.6 -1.4 18
2019-08-17 17:00:00 37 14 Sudoeste 32 Sudoeste 0 949 -1.6 18
2019-08-17 16:00:00 37.1 11 Oeste 27 Sudoeste 0 949.4 -1.4 17
2019-08-17 15:00:00 36.8 10 Sudoeste 33 Sudoeste 0 950 -1 19
2019-08-17 14:00:00 35.9 14 Sudoeste 27 Oeste 0 950.6 -0.4 19
2019-08-17 13:00:00 34.8 13 Sur 23 Sur 0 950.8 -0.1 21
2019-08-17 12:00:00 33.1 8 Sur 18 Sudoeste 0 951 0.2 21
2019-08-17 11:00:00 31 8 Sudoeste 14 Sudoeste 0 951 0.5 25
2019-08-17 10:00:00 29 3 Sur 8 Nordeste 0 950.9 0.6 29
2019-08-17 09:00:00 23.3 5 Nordeste 9 Nordeste 0 950.8 0.5 34
2019-08-17 08:00:00 21.4 0 Calma 10 Nordeste 0 950.5 0.1 32
2019-08-17 07:00:00 21.8 2 Norte 9 Nordeste 0 950.3 -0.2 31
2019-08-17 06:00:00 23.4 6 Noroeste 10 Oeste 0 950.3 -0.4 31
2019-08-17 05:00:00 25 3 Sudoeste 20 Norte 0 950.4 -0.7 26
2019-08-17 04:00:00 26 9 Noroeste 26 Norte 0 950.5 -0.7 30
2019-08-17 03:00:00 26.8 17 Norte 30 Norte 0 950.7 -0.5 28
2019-08-17 02:00:00 26.3 18 Norte 36 Noroeste 0 951.1 -0.4 32
2019-08-17 01:00:00 26.6 26 Norte 47 Norte 0 951.2 0.1 30
2019-08-17 00:00:00 27.4 17 Norte 29 Norte 0 951.2 0.6 33
2019-08-16 23:00:00 26.5 5 Oeste 10 Norte 0 951.5 1.5 40
2019-08-16 22:00:00 28.3 8 Noroeste 18 Oeste 0 951.1 1.1 36
2019-08-16 21:00:00 31.4 5 Sudoeste 27 Sudoeste 0 950.6 0.3 30
2019-08-16 20:00:00 34.1 16 Sudoeste 32 Noroeste 0 950 -0.7 25
2019-08-16 19:00:00 36.5 10 Sudoeste 28 Oeste 0 950 -1.1 19
2019-08-16 18:00:00 37.2 11 Sudoeste 33 Sur 0 950.3 -1.3 18
2019-08-16 17:00:00 37.7 14 Sudoeste 30 Sur 0 950.7 -1.1 17
2019-08-16 16:00:00 37 14 Sudoeste 28 Sudoeste 0 951.1 -1 18
2019-08-16 15:00:00 36.8 12 Oeste 27 Oeste 0 951.6 -0.9 19
2019-08-16 14:00:00 36.2 11 Sudoeste 23 Sudoeste 0 951.8 -0.4 19
2019-08-16 13:00:00 34.7 10 Sudoeste 26 Sudoeste 0 952.1 -0.1 22
2019-08-16 12:00:00 33.3 11 Sudoeste 19 Sudoeste 0 952.5 0.6 24
2019-08-16 11:00:00 31.7 7 Sur 16 Sur 0 952.2 0.5 26
2019-08-16 10:00:00 29.2 3 Sudoeste 5 Sur 0 952.2 1.1 30
2019-08-16 09:00:00 23.9 0 Calma 7 Nordeste 0 951.9 1.1 43
2019-08-16 08:00:00 23.6 6 Nordeste 10 Nordeste 0 951.7 0.7 38
2019-08-16 07:00:00 26.2 5 Sudoeste 25 Norte 0 951.1 -0.2 33
2019-08-16 06:00:00 28.2 12 Norte 30 Nordeste 0 950.8 -0.8 28
2019-08-16 05:00:00 28 24 Norte 40 Nordeste 0 951 -0.9 29
2019-08-16 04:00:00 27.6 20 Norte 37 Nordeste 0 951.3 -0.6 31
2019-08-16 03:00:00 27 18 Norte 36 Norte 0 951.6 -0.4 34
2019-08-16 02:00:00 26.4 18 Norte 37 Nordeste 0 951.9 -0.2 36
2019-08-16 01:00:00 27.5 26 Nordeste 43 Norte 0 951.9 0.3 33
2019-08-16 00:00:00 28.9 19 Norte 34 Norte 0 952 1.1 29
2019-08-15 23:00:00 27 3 Noroeste 8 Noroeste 0 952.1 1.6 34
2019-08-15 22:00:00 29.4 4 Noroeste 16 Oeste 0 951.6 0.9 29
2019-08-15 21:00:00 32.5 7 Noroeste 24 Norte 0 950.9 0.3 23
2019-08-15 20:00:00 34.8 14 Norte 26 Noroeste 0 950.5 -0.6 18
2019-08-15 19:00:00 35.7 15 Norte 27 Norte 0 950.7 -0.8 18
2019-08-15 18:00:00 37.6 13 Oeste 29 Sudoeste 0 950.6 -1.2 17
2019-08-15 17:00:00 37.6 13 Noroeste 33 Oeste 0 951.1 -1.2 18
2019-08-15 16:00:00 37 11 Sudoeste 30 Oeste 0 951.5 -1.1 16
2019-08-15 15:00:00 38 11 Sudoeste 28 Sur 0 951.8 -1.1 15
2019-08-15 14:00:00 36.4 12 Sur 26 Sudoeste 0 952.3 -0.6 16
2019-08-15 13:00:00 35.9 9 Sudoeste 20 Sur 0 952.6 -0.1 17
2019-08-15 12:00:00 33.5 8 Sudoeste 16 Sudoeste 0 952.9 0.2 17
2019-08-15 11:00:00 31.3 5 Sudoeste 11 Sudoeste 0 952.9 0.4 28
2019-08-15 10:00:00 28.4 3 Sur 5 Sur 0 952.7 0.8 33
2019-08-15 09:00:00 23.8 0 Calma 5 Oeste 0 952.7 1 44
2019-08-15 08:00:00 23.7 3 Noroeste 19 Nordeste 0 952.5 0.9 43
2019-08-15 07:00:00 25.8 15 Norte 34 Norte 0 951.9 0.2 39
2019-08-15 06:00:00 26 20 Norte 33 Norte 0 951.7 -0.2 37
2019-08-15 05:00:00 25.4 24 Norte 37 Norte 0 951.6 -0.7 36
2019-08-15 04:00:00 25.9 22 Norte 39 Norte 0 951.7 -0.8 34
2019-08-15 03:00:00 25.7 31 Norte 45 Norte 0 951.9 -0.6 37
2019-08-15 02:00:00 25.4 35 Norte 49 Nordeste 0 952.3 -0.3 37
2019-08-15 01:00:00 26.5 31 Norte 41 Norte 0 952.5 0.5 30
2019-08-15 00:00:00 27.7 21 Norte 35 Norte 0 952.5 1 23
2019-08-14 23:00:00 28.9 16 Norte 28 Norte 0 952.6 1.2 20
2019-08-14 22:00:00 29.2 14 Norte 26 Norte 0 952 0.6 18
2019-08-14 21:00:00 30.6 12 Norte 27 Norte 0 951.5 -0.1 16
2019-08-14 20:00:00 33 15 Norte 31 Noroeste 0 951.4 -0.5 14
2019-08-14 19:00:00 35.2 9 Noroeste 27 Norte 0 951.4 -0.9 13
2019-08-14 18:00:00 36 12 Noroeste -- -- 0 951.6 -1.4 13
2019-08-14 17:00:00 36 10 Oeste 20 Oeste 0 951.9 -1.8 18
2019-08-14 16:00:00 36.1 12 Sudoeste 26 Sudoeste 0 952.3 -1.7 19
2019-08-14 15:00:00 34.3 13 Sudoeste 26 Sudoeste 0 953 -1.1 21
2019-08-14 14:00:00 33.3 12 Sudoeste 23 Sudoeste 0 953.7 -0.3 23
2019-08-14 13:00:00 32.3 9 Sudoeste 19 Sudoeste 0 954 0.1 25
2019-08-14 12:00:00 29.9 7 Sudoeste 14 Sudoeste 0 954.1 0.6 29
2019-08-14 11:00:00 27.5 6 Sudoeste 14 Sudoeste 0 954 1.1 38
2019-08-14 10:00:00 25.3 7 Sudoeste 13 Sudoeste 0 953.9 1.3 52
2019-08-14 09:00:00 21.7 5 Sudeste 14 Este 0 953.5 1.3 31
2019-08-14 08:00:00 19.7 5 Nordeste 12 Nordeste 0 952.9 0.8 29
2019-08-14 07:00:00 20.5 8 Nordeste 13 Nordeste 0 952.6 0.4 29
2019-08-14 06:00:00 23 5 Norte 17 Nordeste 0 952.2 0.1 24
2019-08-14 05:00:00 24.1 10 Nordeste 31 Norte 0 952.1 -0.2 23
2019-08-14 04:00:00 23.8 19 Norte 38 Norte 0 952.2 0 26
2019-08-14 03:00:00 23.4 27 Norte 42 Norte 0 952.1 -0.2 29
2019-08-14 02:00:00 23.6 30 Norte 45 Norte 0 952.3 0.2 24
2019-08-14 01:00:00 25 21 Norte 28 Norte 0 952.2 0.9 16
2019-08-14 00:00:00 24.5 21 Norte 24 Norte 0 952.3 1.6 17
2019-08-13 23:00:00 24.7 18 Nordeste 22 Norte 0 952.1 1.8 18
2019-08-13 22:00:00 27.5 16 Norte 30 Norte 0 951.3 1.2 15
2019-08-13 21:00:00 29.4 17 Norte 30 Norte 0 950.7 0.2 15
2019-08-13 20:00:00 31.5 19 Noroeste 36 Noroeste 0 950.3 -0.5 13
2019-08-13 19:00:00 33.8 12 Norte 36 Norte 0 950.1 -1.1 11
2019-08-13 18:00:00 33.8 8 Este 25 Nordeste 0 950.5 -1.3 11
2019-08-13 17:00:00 34.1 10 Noroeste 28 Oeste 0 950.8 -1.2 11
2019-08-13 16:00:00 33.2 6 Noroeste 21 Sudeste 0 951.2 -1.4 11
2019-08-13 15:00:00 32.5 10 Norte 26 Norte 0 951.8 -0.8 12
2019-08-13 14:00:00 31.5 8 Nordeste 18 Este 0 952 -0.2 13
2019-08-13 13:00:00 29.7 8 Norte 24 Norte 0 952.6 1.1 16
2019-08-13 12:00:00 27.9 16 Nordeste 33 Norte 0 952.6 1.3 20
2019-08-13 11:00:00 26.1 20 Norte 35 Norte 0 952.2 1.2 21
2019-08-13 10:00:00 24.8 24 Norte 34 Norte 0 951.5 1 22
2019-08-13 09:00:00 22.9 21 Norte 33 Nordeste 0 951.3 0.7 24
2019-08-13 08:00:00 20.8 25 Norte 37 Norte 0 951 0.4 26
2019-08-13 07:00:00 20.9 26 Norte 36 Norte 0 950.5 -0.3 25
2019-08-13 06:00:00 20.8 27 Norte 40 Norte 0 950.6 -0.7 26
2019-08-13 05:00:00 20.7 28 Norte 43 Norte 0 950.6 -1.1 25
2019-08-13 04:00:00 21.1 31 Norte 45 Nordeste 0 950.8 -0.9 23
2019-08-13 03:00:00 21.6 29 Norte 44 Norte 0 951.3 -0.5 22
2019-08-13 02:00:00 22.3 26 Nordeste 39 Nordeste 0 951.7 -0.1 20
2019-08-13 01:00:00 22.9 25 Norte 36 Norte 0 951.7 0.3 20
2019-08-13 00:00:00 23.2 19 Norte 31 Nordeste 0 951.8 0.9 20
2019-08-12 23:00:00 24.1 19 Norte 27 Norte 0 951.8 1.3 20
2019-08-12 22:00:00 23.5 11 Norte 21 Nordeste 0 951.4 1 23
2019-08-12 21:00:00 25.1 10 Norte 24 Este 0 950.9 0.4 18
2019-08-12 20:00:00 27.8 9 Norte 31 Noroeste 0 950.5 -0.3 16
2019-08-12 19:00:00 27.7 16 Norte 28 Norte 0 950.4 -1.1 16
2019-08-12 18:00:00 28.5 17 Norte 35 Nordeste 0 950.5 -1.4 14
2019-08-12 17:00:00 28.3 13 Norte -- -- 0 950.8 -1.3 15
2019-08-12 16:00:00 27.9 -- -- -- -- 0 951.5 -0.8 16
2019-08-12 15:00:00 27.6 13 Nordeste -- -- 0 951.9 -0.3 17
2019-08-12 14:00:00 26 13 Nordeste 37 Norte 0 952.1 1 17
2019-08-12 13:00:00 24.1 18 Norte 45 Norte 0 952.3 1.5 24
2019-08-12 12:00:00 22.7 15 Norte 55 Nordeste 0 952.2 1.4 29
2019-08-12 11:00:00 20.2 37 Nordeste 67 Nordeste 0 951.1 0.8 37
2019-08-12 10:00:00 18.3 46 Norte 69 Nordeste 0 950.8 0.7 43
2019-08-12 09:00:00 15.8 34 Nordeste 58 Nordeste 0 950.8 0.4 55
2019-08-12 08:00:00 14.5 38 Nordeste 58 Norte 0 950.3 -0.5 62
2019-08-12 07:00:00 14.3 44 Norte 64 Nordeste 0 950.1 -1.2 64
2019-08-12 06:00:00 14.4 44 Norte 59 Nordeste 0 950.4 -1.5 65
2019-08-12 05:00:00 14.9 40 Nordeste 57 Nordeste 0 950.8 -1.8 62
2019-08-12 04:00:00 14.8 38 Nordeste 56 Norte 0 951.3 -1.4 63
2019-08-12 03:00:00 15.8 36 Norte 53 Norte 0 951.9 -0.8 58
2019-08-12 02:00:00 16.9 32 Norte 48 Nordeste 0 952.6 -0.3 52
2019-08-12 01:00:00 18.4 28 Norte 50 Norte 0 952.7 0.3 46
2019-08-12 00:00:00 19.9 21 Norte 44 Norte 0 952.7 0.8 40
2019-08-11 23:00:00 20.7 9 Norte 23 Nordeste 0 952.9 1.2 36
2019-08-11 22:00:00 21.7 8 Noroeste 26 Norte 0 952.4 0.5 32
2019-08-11 21:00:00 22.6 8 Norte 30 Norte 0 951.9 0.1 30
2019-08-11 20:00:00 23.2 13 Norte 39 Norte 0 951.7 -0.5 26
2019-08-11 19:00:00 24.1 14 Noroeste 33 Norte 0 951.9 -0.5 28
2019-08-11 18:00:00 26.2 17 Noroeste 39 Norte 0 951.8 -1.2 24
2019-08-11 17:00:00 26.8 15 Norte 39 Nordeste 0 952.2 -0.8 25
2019-08-11 16:00:00 26.1 19 Norte 43 Norte 0 952.4 -1.2 22
2019-08-11 15:00:00 23.7 23 Norte 50 Norte 0 953 0.4 25
2019-08-11 14:00:00 24.4 27 Norte 51 Nordeste 0 953 1.1 25
2019-08-11 13:00:00 22.4 17 Norte 51 Nordeste 0 953.6 2.2 30
2019-08-11 12:00:00 20 32 Norte 62 Norte 0 952.6 1 41
2019-08-11 11:00:00 18.8 40 Norte 72 Nordeste 0 951.9 0.8 45
2019-08-11 10:00:00 16.4 45 Norte 68 Nordeste 0 951.4 0.8 56
2019-08-11 09:00:00 14.7 38 Norte 67 Nordeste 0 951.6 0.9 66
2019-08-11 08:00:00 14.4 40 Norte 75 Norte 0 951.1 0.5 68
2019-08-11 07:00:00 14.6 50 Norte 79 Nordeste 0 950.6 -0.3 69
2019-08-11 06:00:00 15.4 40 Norte 63 Norte 0 950.7 -0.7 65
2019-08-11 05:00:00 16.2 34 Norte 54 Nordeste 0 950.6 -1.1 64
2019-08-11 04:00:00 17.9 19 Norte 59 Nordeste 0 950.9 -1 53
2019-08-11 03:00:00 17.4 33 Norte 58 Norte 0 951.4 -0.7 62
2019-08-11 02:00:00 18.4 30 Norte 53 Norte 0 951.7 -0.1 62
2019-08-11 01:00:00 19.8 33 Norte 50 Norte 0 951.9 0.7 57
2019-08-11 00:00:00 21.5 27 Norte 50 Norte 0 952.1 1.1 47
2019-08-10 23:00:00 22.5 30 Norte 51 Norte 0 951.8 1.2 43
2019-08-10 22:00:00 24.2 24 Norte 40 Norte 0 951.2 0.5 33
2019-08-10 21:00:00 26.1 22 Norte 36 Norte 0 951 0.3 24
2019-08-10 20:00:00 28.6 19 Norte 36 Norte 0 950.6 -0.8 20
2019-08-10 19:00:00 30.4 19 Norte 35 Norte 0 950.7 -1.6 18
2019-08-10 18:00:00 31.9 14 Norte 33 Norte 0 950.7 -2.2 19
2019-08-10 17:00:00 33 8 Oeste 25 Sudoeste 0 951.4 -2.1 21
2019-08-10 16:00:00 32.6 6 Oeste 26 Sur 0 952.3 -1.5 25
2019-08-10 15:00:00 30.7 10 Sudoeste 23 Sudoeste 0 952.9 -1.1 28
2019-08-10 14:00:00 29.9 6 Sudoeste 18 Sudeste 0 953.5 -0.1 32
2019-08-10 13:00:00 28 6 Nordeste 15 Este 0 953.8 0.7 38
2019-08-10 12:00:00 25.4 5 Sudoeste 32 Nordeste 0 954 1 44
2019-08-10 11:00:00 22.5 22 Nordeste 48 Norte 0 953.6 0.5 55
2019-08-10 10:00:00 20.2 35 Norte 49 Nordeste 0 953.1 0.2 62
2019-08-10 09:00:00 18.9 28 Norte 46 Norte 0 953 0.3 68
2019-08-10 08:00:00 18.4 28 Norte 42 Nordeste 0 953.1 0.3 69
2019-08-10 07:00:00 19 16 Norte 36 Nordeste 0 952.9 0.1 70
2019-08-10 06:00:00 18.2 17 Norte 41 Norte 0 952.7 -0.2 73
2019-08-10 05:00:00 18.6 21 Norte 35 Noroeste 0 952.8 -0.4 71
2019-08-10 04:00:00 19.7 19 Norte 40 Norte 0 952.8 -0.5 65
2019-08-10 03:00:00 20.3 21 Norte 40 Norte 0 952.9 -0.2 65
2019-08-10 02:00:00 20.6 23 Norte 42 Norte 0 953.2 0.2 67
2019-08-10 01:00:00 21.1 20 Norte 37 Norte 0 953.3 1.1 73
2019-08-10 00:00:00 21.7 22 Norte 40 Norte 0 953.1 1.5 74
2019-08-09 23:00:00 22.6 20 Norte 36 Norte 0 953 1.9 70
2019-08-09 22:00:00 23.9 17 Norte 31 Norte 0 952.2 0.8 65
2019-08-09 21:00:00 26.2 12 Norte 23 Noroeste 0 951.6 0.2 59
2019-08-09 20:00:00 28.7 14 Noroeste 28 Noroeste 0 951.1 -0.7 49
2019-08-09 19:00:00 29.5 13 Noroeste 30 Noroeste 0 951.4 -0.8 47
2019-08-09 18:00:00 30.9 -- -- -- -- 0 951.4 -1 47
2019-08-09 17:00:00 32.5 12 Oeste 29 Noroeste 0 951.8 -0.6 38
2019-08-09 16:00:00 30.4 11 Noroeste 26 Oeste 0 952.2 -0.4 46
2019-08-09 15:00:00 30 13 Noroeste 28 Noroeste 0 952.4 -0.1 44
2019-08-09 14:00:00 30.9 14 Sudoeste 28 Sudoeste 0 952.4 0.1 41
2019-08-09 13:00:00 29.5 12 Oeste 23 Oeste 0 952.6 0.5 44
2019-08-09 12:00:00 27.6 5 Sudoeste 22 Oeste 0 952.5 0.9 53
2019-08-09 11:00:00 24.8 12 Noroeste 18 Sudoeste 0 952.3 0.9 63
2019-08-09 10:00:00 23.3 6 Sudoeste 11 Sudoeste 0 952.1 1 65
2019-08-09 09:00:00 19.9 0 Calma 7 Nordeste 0 951.6 0.8 78
2019-08-09 08:00:00 18.2 4 Noroeste 8 Oeste 0 951.4 0.7 81
2019-08-09 07:00:00 19.2 4 Este 9 Sudeste 0 951.1 0.4 77
2019-08-09 06:00:00 20.4 5 Sudoeste 23 Norte 0 950.8 0.2 76
2019-08-09 05:00:00 21.7 9 Norte 28 Norte 0 950.7 0 65
2019-08-09 04:00:00 22.2 12 Noroeste 35 Norte 0 950.7 0.3 57
2019-08-09 03:00:00 22.2 25 Norte 46 Norte 0 950.6 0.2 65
2019-08-09 02:00:00 22.5 29 Norte 42 Norte 0 950.7 0.6 70
2019-08-09 01:00:00 22.7 27 Norte 46 Norte 0 950.4 0.9 70
2019-08-09 00:00:00 23.9 22 Norte 38 Norte 0 950.4 1.5 66
2019-08-08 23:00:00 25.1 12 Noroeste 26 Noroeste 0 950.1 1.9 56
2019-08-08 22:00:00 26 6 Noroeste 23 Oeste 0 949.5 1 44
2019-08-08 21:00:00 29.2 12 Sudoeste 26 Sudoeste 0 948.9 0.1 36
2019-08-08 20:00:00 32.9 10 Sudoeste 26 Oeste 0 948.2 -0.8 20
2019-08-08 19:00:00 34.3 11 Sudoeste 24 Sudoeste 0 948.5 -1.1 15
2019-08-08 18:00:00 34.5 10 Oeste 25 Sudoeste 0 948.8 -1.1 14
2019-08-08 17:00:00 34.9 10 Sudoeste 29 Oeste 0 949 -1.3 15
2019-08-08 16:00:00 34.9 10 Sudoeste 34 Sudoeste 0 949.6 -0.9 17
2019-08-08 15:00:00 33.3 11 Oeste 34 Sudoeste 0 949.9 -0.6 18
2019-08-08 14:00:00 32.4 12 Sudoeste 26 Sudoeste 0 950.3 0.1 20
2019-08-08 13:00:00 30.9 11 Oeste 22 Sudoeste 0 950.5 0.4 27
2019-08-08 12:00:00 29.6 12 Sudoeste 20 Sudoeste 0 950.5 0.6 32
2019-08-08 11:00:00 27.7 7 Sur 17 Sudoeste 0 950.2 0.6 38
2019-08-08 10:00:00 25.6 3 Sur 6 Sudoeste 0 950.1 0.7 44
2019-08-08 09:00:00 21.3 2 Oeste 15 Norte 0 949.9 0.6 57
2019-08-08 08:00:00 20.3 5 Norte 21 Norte 0 949.6 0.1 58
2019-08-08 07:00:00 20.2 10 Norte 29 Norte 0 949.4 -0.5 64
2019-08-08 06:00:00 20.6 17 Norte 33 Noroeste 0 949.3 -0.9 63
2019-08-08 05:00:00 20.5 17 Noroeste 30 Noroeste 0 949.5 -1 65
2019-08-08 04:00:00 21.3 12 Norte 22 Norte 0 949.9 -0.6 63
2019-08-08 03:00:00 22 15 Norte 28 Norte 0 950.2 0 60
2019-08-08 02:00:00 22.5 8 Noroeste 24 Noroeste 0 950.5 0.6 50
2019-08-08 01:00:00 22.6 4 Sudoeste 21 Noroeste 0 950.5 1.1 50
2019-08-08 00:00:00 23.1 8 Noroeste 26 Norte 0 950.2 1.2 49
2019-08-07 23:00:00 23.8 15 Noroeste 37 Norte 0 949.9 1 47
2019-08-07 22:00:00 24.3 17 Norte 32 Noroeste 0 949.4 0.4 41
2019-08-07 21:00:00 25.7 16 Norte 31 Norte 0 949 0.1 36
2019-08-07 20:00:00 25.7 21 Norte 39 Norte 0 948.9 -0.4 44
2019-08-07 19:00:00 25.7 23 Norte 40 Norte 0 949 -0.7 48
2019-08-07 18:00:00 27.2 15 Norte 24 Norte 0 948.9 -0.9 39
2019-08-07 17:00:00 27.9 17 Norte 27 Norte 0 949.3 -0.5 36
2019-08-07 16:00:00 29.2 7 Nordeste 19 Norte 0 949.7 -0.1 35
2019-08-07 15:00:00 28.5 13 Norte 28 Nordeste 0 949.8 -0.1 36
2019-08-07 14:00:00 25.8 14 Norte 25 Nordeste 0 949.8 0.4 42
2019-08-07 13:00:00 26.7 18 Norte 32 Norte 0 949.8 0.9 37
2019-08-07 12:00:00 27.8 14 Norte -- -- 0 949.9 1.6 36
2019-08-07 11:00:00 27.8 8 Sudoeste 12 Sudoeste 0 949.4 1.4 38
2019-08-07 10:00:00 24.9 3 Sur 12 Sur 0 948.9 1.3 45
2019-08-07 09:00:00 21.9 3 Sudoeste 10 Sudoeste 0 948.3 0.8 48
2019-08-07 08:00:00 20 4 Sur 8 Sudoeste 0 948 0.5 55
2019-08-07 07:00:00 20.7 4 Sudoeste 27 Noroeste 0 947.6 -0.4 59
2019-08-07 06:00:00 21.6 18 Norte 32 Norte 0 947.5 -0.5 59
2019-08-07 05:00:00 21.4 15 Norte 32 Norte 0 947.5 -0.9 65
2019-08-07 04:00:00 21.3 15 Norte 36 Norte 0 948 -0.6 66
2019-08-07 03:00:00 22.4 9 Noroeste 27 Norte 0 948 -0.6 62
2019-08-07 02:00:00 22.5 14 Norte 33 Norte 0 948.4 0.1 61
2019-08-07 01:00:00 23.4 24 Norte 40 Norte 0 948.6 0.9 57
2019-08-07 00:00:00 24.6 27 Norte 39 Norte 0 948.6 1.3 52
2019-08-06 23:00:00 25.3 18 Norte 28 Norte 0 948.3 1.3 48
2019-08-06 22:00:00 26.8 16 Norte 25 Norte 0 947.7 0.7 36
2019-08-06 21:00:00 29.2 12 Noroeste 24 Norte 0 947.3 -0.1 29
2019-08-06 20:00:00 31.5 15 Noroeste 30 Noroeste 0 947 -0.7 24
2019-08-06 19:00:00 34.1 11 Oeste 30 Noroeste 0 947 -1.3 20
2019-08-06 18:00:00 34.8 12 Sudoeste -- -- 0 947.4 -1.4 16
2019-08-06 17:00:00 35.3 11 Sudoeste 28 Sudoeste 0 947.7 -1.6 16
2019-08-06 16:00:00 34.7 15 Sudoeste 32 Sudoeste 0 948.3 -1.2 16
2019-08-06 15:00:00 34.2 13 Sur 36 Sudoeste 0 948.8 -0.7 17
2019-08-06 14:00:00 33.5 9 Oeste 25 Sudoeste 0 949.3 -0.2 19
2019-08-06 13:00:00 32.4 10 Sudoeste 24 Oeste 0 949.5 -0.1 19
2019-08-06 12:00:00 31 11 Sudoeste 21 Sudoeste 0 949.5 0 23
2019-08-06 11:00:00 29.3 7 Sudoeste 14 Sur 0 949.5 0.5 24
2019-08-06 10:00:00 26.8 5 Sur 10 Sur 0 949.6 0.9 31
2019-08-06 09:00:00 20.9 5 Oeste 11 Oeste 0 949.5 0.7 53
2019-08-06 08:00:00 20.3 4 Noroeste 8 Oeste 0 949 -0.4 43
2019-08-06 07:00:00 20.3 0 Calma 6 Noroeste 0 948.7 -0.5 44
2019-08-06 06:00:00 20.5 3 Norte 6 Noroeste 0 948.8 -0.6 46
2019-08-06 05:00:00 21.6 3 Oeste 18 Norte 0 949.4 -0.2 44
2019-08-06 04:00:00 23.2 13 Norte 32 Norte 0 949.2 -0.1 37
2019-08-06 03:00:00 23.6 23 Norte 39 Noroeste 0 949.4 -0.2 39
2019-08-06 02:00:00 23.2 30 Norte 46 Norte 0 949.6 0.3 46
2019-08-06 01:00:00 24.7 31 Norte 46 Norte 0 949.3 0.4 42
2019-08-06 00:00:00 25.3 23 Norte 37 Norte 0 949.6 1.2 38
2019-08-05 23:00:00 26.5 16 Norte 26 Norte 0 949.3 1.2 28
2019-08-05 22:00:00 27.2 12 Norte 19 Noroeste 0 948.9 0.8 21
2019-08-05 21:00:00 30.1 10 Noroeste 25 Noroeste 0 948.4 0.3 16
2019-08-05 20:00:00 33 12 Oeste 29 Sudoeste 0 948.1 -0.3 15
2019-08-05 19:00:00 34.4 12 Oeste 24 Sudoeste 0 948.1 -0.7 14
2019-08-05 18:00:00 35 10 Sudoeste 26 Sudoeste 0 948.1 -0.9 12
2019-08-05 17:00:00 35.4 12 Sudoeste 29 Sudoeste 0 948.4 -1.1 12
2019-08-05 16:00:00 35 15 Sudoeste 34 Sudoeste 0 948.8 -1.2 15
2019-08-05 15:00:00 34.4 15 Sudoeste 28 Sudoeste 0 949 -1.1 18
2019-08-05 14:00:00 34.2 13 Sur 27 Sudoeste 0 949.5 -0.7 19
2019-08-05 13:00:00 32.7 12 Sudoeste 26 Sudoeste 0 950 -0.1 21
2019-08-05 12:00:00 31.2 9 Sudoeste 23 Sudoeste 0 950.1 0.3 24
2019-08-05 11:00:00 30.3 9 Sudoeste 19 Sudoeste 0 950.2 0.5 27
2019-08-05 10:00:00 28.7 6 Noroeste 18 Noroeste 0 950.1 0.5 26
2019-08-05 09:00:00 22.9 2 Sudoeste 10 Oeste 0 949.8 0.3 43
2019-08-05 08:00:00 20.4 4 Oeste 9 Nordeste 0 949.7 0 49
2019-08-05 07:00:00 20.5 3 Sudoeste 14 Norte 0 949.6 -0.2 50
2019-08-05 06:00:00 19.7 5 Noroeste 13 Noroeste 0 949.5 -0.7 56
2019-08-05 05:00:00 20.2 5 Oeste 10 Oeste 0 949.7 -0.7 56
2019-08-05 04:00:00 20.4 7 Oeste 10 Oeste 0 949.8 -0.5 56
2019-08-05 03:00:00 21.9 5 Oeste 38 Nordeste 0 950.2 0 52
2019-08-05 02:00:00 22.2 27 Norte 46 Norte 0 950.4 0.6 53
2019-08-05 01:00:00 23.4 27 Norte 52 Norte 0 950.3 0.8 49
2019-08-05 00:00:00 24.7 31 Norte 50 Norte 0 950.2 1.2 45
2019-08-04 23:00:00 26.1 29 Norte 45 Norte 0 949.8 1 42
2019-08-04 22:00:00 27.6 19 Norte 33 Norte 0 949.5 0.8 36
2019-08-04 21:00:00 30.1 17 Norte 29 Norte 0 949 0.2 29
2019-08-04 20:00:00 32.3 13 Norte 25 Noroeste 0 948.8 -0.1 21
2019-08-04 19:00:00 33.1 13 Norte 30 Noroeste 0 948.7 -0.8 19
2019-08-04 18:00:00 33.8 12 Norte 27 Norte 0 948.8 -0.9 19
2019-08-04 17:00:00 33.5 13 Noroeste -- -- 0 948.9 -1.2 20
2019-08-04 16:00:00 32.9 8 Oeste 32 Noroeste 0 949.5 -1 23
2019-08-04 15:00:00 32.5 11 Noroeste 26 Noroeste 0 949.7 -1 25
2019-08-04 14:00:00 33.9 7 Sudoeste 26 Sudoeste 0 950.1 -0.4 25
2019-08-04 13:00:00 32 10 Sudoeste 23 Sudoeste 0 950.5 0 29
2019-08-04 12:00:00 30.1 7 Sur 16 Sur 0 950.7 0.4 32
2019-08-04 11:00:00 28.1 5 Sur 12 Sudoeste 0 950.5 0.7 36
2019-08-04 10:00:00 26 4 Sudoeste 8 Sur 0 950.5 1.1 41
2019-08-04 09:00:00 22.1 2 Este 6 Nordeste 0 950.3 0.8 49
2019-08-04 08:00:00 19.7 3 Noroeste 6 Norte 0 949.8 0.3 52
2019-08-04 07:00:00 20.4 0 Calma 7 Oeste 0 949.4 0 50
2019-08-04 06:00:00 19.5 4 Noroeste 11 Oeste 0 949.5 0.1 62
2019-08-04 05:00:00 21.6 4 Oeste 18 Norte 0 949.5 0.1 51
2019-08-04 04:00:00 23.9 12 Norte 33 Norte 0 949.4 0 35
2019-08-04 03:00:00 23.4 23 Norte 40 Norte 0 949.4 -0.3 47
2019-08-04 02:00:00 23.3 26 Norte 45 Norte 0 949.4 -0.2 53
2019-08-04 01:00:00 24.3 26 Norte 39 Norte 0 949.4 0.6 51
2019-08-04 00:00:00 24.4 11 Noroeste 20 Noroeste 0 949.7 1.4 50
2019-08-03 23:00:00 25 4 Noroeste 18 Norte 0 949.6 1.5 30
2019-08-03 22:00:00 26.6 14 Norte 18 Norte 0 948.8 0.5 27
2019-08-03 21:00:00 29.8 10 Noroeste 22 Oeste 0 948.3 -0.2 24
2019-08-03 20:00:00 32.7 9 Oeste 24 Sudoeste 0 948.1 -0.8 17
2019-08-03 19:00:00 33.3 13 Oeste 26 Sudoeste 0 948.3 -1.1 16
2019-08-03 18:00:00 34 12 Sudoeste 28 Sur 0 948.5 -1.2 16
2019-08-03 17:00:00 34.1 13 Sur 31 Sur 0 948.9 -0.9 17
2019-08-03 16:00:00 34 16 Sudoeste 30 Sudoeste 0 949.4 -0.6 17
2019-08-03 15:00:00 33.3 13 Sudoeste 29 Sudoeste 0 949.7 -0.1 20
2019-08-03 14:00:00 32.7 10 Sur 24 Sudoeste 0 949.8 0.1 20
2019-08-03 13:00:00 31.7 12 Sudoeste 23 Sur 0 950 0.5 26
2019-08-03 12:00:00 30.3 12 Sudoeste 20 Sudoeste 0 949.8 0.4 30
2019-08-03 11:00:00 28.5 10 Sudoeste 16 Sudoeste 0 949.7 0.7 31
2019-08-03 10:00:00 27.4 6 Sudoeste 10 Sudoeste 0 949.5 0.7 34
2019-08-03 09:00:00 22.3 3 Este 6 Nordeste 0 949.4 0.9 49
2019-08-03 08:00:00 19.7 4 Norte 9 Nordeste 0 949 0.3 53
2019-08-03 07:00:00 21.3 5 Nordeste 9 Nordeste 0 948.8 -0.2 49
2019-08-03 06:00:00 21.8 4 Noroeste 19 Noroeste 0 948.5 -0.5 47
2019-08-03 05:00:00 23.1 8 Norte 22 Noroeste 0 948.7 -0.2 44
2019-08-03 04:00:00 22.8 12 Norte 23 Norte 0 949 0 53
2019-08-03 03:00:00 22.6 17 Norte 36 Norte 0 949 -0.1 55
2019-08-03 02:00:00 23 21 Norte 41 Norte 0 948.9 -0.4 56
2019-08-03 01:00:00 24.4 28 Norte 40 Norte 0 949 0 49
2019-08-03 00:00:00 25.2 22 Norte 30 Norte 0 949.1 0.3 40
2019-08-02 23:00:00 26.1 13 Norte 19 Norte 0 949.3 0.7 26
2019-08-02 22:00:00 26.6 15 Norte 19 Norte 0 949 0.5 25
2019-08-02 21:00:00 30 7 Noroeste 21 Sudoeste 0 948.8 0.1 21
2019-08-02 20:00:00 32.7 10 Oeste 24 Oeste 0 948.6 -0.5 18
2019-08-02 19:00:00 33.9 11 Sudoeste 27 Sur 0 948.5 -0.8 17
2019-08-02 18:00:00 34 17 Sudoeste 31 Sudoeste 0 948.7 -1 17
2019-08-02 17:00:00 35.3 10 Oeste 28 Sudoeste 0 949.1 -0.9 15
2019-08-02 16:00:00 34.3 9 Sur -- -- 0 949.3 -0.9 14
2019-08-02 15:00:00 34.6 11 Sudoeste 22 Sudoeste 0 949.7 -0.9 13
2019-08-02 14:00:00 33.2 14 Sudoeste 24 Sudoeste 0 950 -0.2 12
2019-08-02 13:00:00 32.1 5 Sudoeste 18 Sudoeste 0 950.2 0.2 14
2019-08-02 12:00:00 29.7 9 Sudoeste 19 Sudoeste 0 950.6 1.1 18
2019-08-02 11:00:00 28.1 8 Sudoeste 15 Sudoeste 0 950.2 1 21
2019-08-02 10:00:00 26.6 8 Sudoeste 11 Sudoeste 0 950 1.1 23
2019-08-02 09:00:00 23 6 Nordeste 13 Norte 0 949.5 0.8 29
2019-08-02 08:00:00 21.4 7 Norte 24 Norte 0 949.2 0.4 29
2019-08-02 07:00:00 21.9 15 Norte 30 Norte 0 948.9 -0.2 28
2019-08-02 06:00:00 22.1 21 Norte 39 Norte 0 948.7 -0.6 30
2019-08-02 05:00:00 22 25 Norte 39 Norte 0 948.8 -0.6 30
2019-08-02 04:00:00 22 27 Norte 43 Norte 0 949.1 -0.5 31
2019-08-02 03:00:00 22.2 27 Norte 47 Norte 0 949.3 -0.3 38
2019-08-02 02:00:00 22.4 30 Norte 49 Norte 0 949.4 0.2 41
2019-08-02 01:00:00 23.2 30 Norte 52 Norte 0 949.6 1.1 38
2019-08-02 00:00:00 24.7 28 Norte 47 Norte 0 949.6 1.3 33
2019-08-01 23:00:00 26.4 23 Norte 39 Norte 0 949.2 1.5 29
2019-08-01 22:00:00 27.2 15 Norte 20 Noroeste 0 948.5 1.1 24
2019-08-01 21:00:00 29.2 10 Norte 27 Noroeste 0 948.3 0.8 21
2019-08-01 20:00:00 31 15 Norte 28 Noroeste 0 947.7 0 19
2019-08-01 19:00:00 32.1 15 Norte 28 Norte 0 947.4 -0.7 18
2019-08-01 18:00:00 34.3 8 Oeste 30 Oeste 0 947.5 -1.1 15
2019-08-01 17:00:00 33.7 12 Noroeste 28 Noroeste 0 947.7 -1.4 18
2019-08-01 16:00:00 32.8 8 Noroeste 28 Sudoeste 0 948.1 -1.3 20
2019-08-01 15:00:00 32.1 17 Sudoeste 32 Sudoeste 0 948.6 -0.7 23
2019-08-01 14:00:00 30.9 8 Oeste 28 Sudoeste 0 949.1 -0.1 29
2019-08-01 13:00:00 28.8 13 Sudoeste 24 Oeste 0 949.4 0.9 35
2019-08-01 12:00:00 27.5 12 Sudoeste 28 Sudoeste 0 949.3 1.2 39
2019-08-01 11:00:00 26.4 13 Sudoeste 22 Sudoeste 0 949.2 1.5 34
2019-08-01 10:00:00 25.8 7 Sudoeste 13 Sudoeste 0 948.5 1.1 32
2019-08-01 09:00:00 21.3 4 Nordeste 6 Oeste 0 948.1 0.8 38
2019-08-01 08:00:00 19.2 6 Nordeste 10 Nordeste 0 947.7 0.1 26
2019-08-01 07:00:00 19.6 3 Norte 5 Norte 0 947.4 -0.1 30
2019-08-01 06:00:00 19.1 2 Sudoeste 7 Nordeste 0 947.3 -0.2 36
2019-08-01 05:00:00 19.9 3 Nordeste 7 Nordeste 0 947.6 0.2 33
2019-08-01 04:00:00 21.2 5 Nordeste 6 Norte 0 947.5 0.1 42
2019-08-01 03:00:00 22.9 4 Noroeste 35 Nordeste 0 947.5 -0.1 37
2019-08-01 02:00:00 24.3 24 Norte 37 Nordeste 0 947.4 -0.3 34
2019-08-01 01:00:00 24.1 23 Norte 32 Norte 0 947.4 0.6 35
2019-08-01 00:00:00 24 14 Norte 23 Nordeste 0 947.6 1.6 36
2019-07-31 23:00:00 24.6 10 Norte 19 Oeste 0 947.7 2.2 38
2019-07-31 22:00:00 27 8 Oeste 22 Sudoeste 0 946.8 1.3 43
2019-07-31 21:00:00 30.2 9 Oeste 26 Sudoeste 0 946 0.3 32
2019-07-31 20:00:00 33.3 12 Oeste 26 Sudoeste 0 945.5 -0.6 16
2019-07-31 19:00:00 33.4 13 Noroeste 28 Noroeste 0 945.5 -1.3 16
2019-07-31 18:00:00 35.1 11 Sudoeste 28 Sudoeste 0 945.7 -1.3 15
2019-07-31 17:00:00 36.1 11 Oeste 24 Sudoeste 0 946.1 -1.6 13
2019-07-31 16:00:00 34.8 14 Sudoeste 30 Sudoeste 0 946.8 -1.4 14
2019-07-31 15:00:00 34.6 11 Sur 21 Sur 0 947 -1.2 14
2019-07-31 14:00:00 33.8 10 Sudoeste 21 Sur 0 947.7 -0.2 14
2019-07-31 13:00:00 32.5 10 Sudoeste 24 Sudoeste 0 948.2 0.5 15
2019-07-31 12:00:00 31.6 10 Sudoeste 22 Sudoeste 0 948.2 0.8 15
2019-07-31 11:00:00 30.4 7 Sudoeste 13 Sudoeste 0 947.9 0.6 15
2019-07-31 10:00:00 27.8 3 Sudoeste 5 Sudoeste 0 947.7 0.5 21
2019-07-31 09:00:00 23.7 3 Norte 7 Norte 0 947.4 0.4 26
2019-07-31 08:00:00 22 4 Nordeste 13 Norte 0 947.3 0.5 25
2019-07-31 07:00:00 21.9 8 Nordeste 31 Nordeste 0 947.2 0.2 25
2019-07-31 06:00:00 22.1 13 Nordeste 39 Norte 0 947 -0.4 26
2019-07-31 05:00:00 21.8 27 Norte 48 Norte 0 946.8 -1.1 31
2019-07-31 04:00:00 22.5 30 Norte 44 Nordeste 0 947 -1.1 29
2019-07-31 03:00:00 22.9 30 Norte 47 Norte 0 947.4 -0.9 27
2019-07-31 02:00:00 21.8 32 Norte 48 Norte 0 947.9 -0.4 34
2019-07-31 01:00:00 23.4 28 Norte 43 Norte 0 948.1 0.3 20
2019-07-31 00:00:00 23.8 26 Norte 38 Nordeste 0 948.3 0.7 19
2019-07-30 23:00:00 24.3 23 Norte 31 Norte 0 948.3 0.8 17
2019-07-30 22:00:00 24.9 19 Norte 30 Norte 0 947.8 0.2 18
2019-07-30 21:00:00 27.6 13 Norte 23 Norte 0 947.6 -0.4 17
2019-07-30 20:00:00 30.5 10 Norte 20 Nordeste 0 947.5 -1.1 13
2019-07-30 19:00:00 31 15 Norte 25 Norte 0 947.6 -1.3 12
2019-07-30 18:00:00 31.3 6 Norte 30 Norte 0 948 -1.4 12
2019-07-30 17:00:00 31.1 8 Nordeste 26 Norte 0 948.6 -1.2 12
2019-07-30 16:00:00 31 10 Nordeste 24 Norte 0 948.9 -1.1 12
2019-07-30 15:00:00 29.7 12 Nordeste 36 Nordeste 0 949.4 -0.5 11
2019-07-30 14:00:00 28.1 17 Norte 41 Nordeste 0 949.8 0.1 13
2019-07-30 13:00:00 25.6 22 Norte 43 Norte 0 950 0.3 22
2019-07-30 12:00:00 23.8 30 Norte 52 Norte 0 949.9 0.8 30
2019-07-30 11:00:00 21.5 32 Norte 56 Nordeste 0 949.7 1.1 37
2019-07-30 10:00:00 18.8 41 Norte 59 Norte 0 949.7 1.3 46
2019-07-30 09:00:00 16.1 42 Norte 64 Norte 0 949.1 0.6 57
2019-07-30 08:00:00 15.5 44 Norte 64 Norte 0 948.6 0 58
2019-07-30 07:00:00 15.8 44 Norte 59 Nordeste 0 948.4 0 56
2019-07-30 06:00:00 16.1 43 Norte 62 Norte 0 948.5 -0.1 56
2019-07-30 05:00:00 15.7 44 Norte 62 Nordeste 0 948.6 0 59
2019-07-30 04:00:00 15.5 44 Norte 65 Nordeste 0 948.4 -0.2 60
2019-07-30 03:00:00 16.4 41 Norte 71 Nordeste 0 948.6 -0.1 56
2019-07-30 02:00:00 17.8 42 Norte 68 Norte 0 948.6 -0.1 51
2019-07-30 01:00:00 19.2 41 Norte 68 Nordeste 0 948.6 0.3 47
2019-07-30 00:00:00 20.9 36 Norte 56 Norte 0 948.7 0.6 41
2019-07-29 23:00:00 22.7 32 Norte 54 Norte 0 948.7 0.7 35
2019-07-29 22:00:00 24.2 26 Norte 45 Norte 0 948.3 0.3 31
2019-07-29 21:00:00 25.9 24 Norte 38 Norte 0 948.1 0.1 30
2019-07-29 20:00:00 27.3 23 Norte 38 Norte 0 948 0 27
2019-07-29 19:00:00 28.3 17 Norte 35 Norte 0 948 -0.2 27
2019-07-29 18:00:00 28.8 15 Norte -- -- 0 948 -0.5 27
2019-07-29 17:00:00 29.6 15 Norte -- -- 0 948 -0.8 34
2019-07-29 16:00:00 30.6 11 Noroeste 28 Noroeste 0 948.2 -0.8 32
2019-07-29 15:00:00 28.7 13 Norte 24 Noroeste 0 948.5 -0.5 38
2019-07-29 14:00:00 26.8 14 Noroeste 26 Norte 0 948.8 0.3 41
2019-07-29 13:00:00 26.6 12 Nordeste 25 Norte 0 949 1.2 42
2019-07-29 12:00:00 24.3 6 Nordeste 28 Norte 0 949 1.7 49
2019-07-29 11:00:00 21.4 14 Norte 59 Nordeste 0 948.5 1.7 57
2019-07-29 10:00:00 19 39 Norte 64 Nordeste 0 947.8 1.5 62
2019-07-29 09:00:00 18.1 44 Norte 59 Norte 0 947.3 1 48
2019-07-29 08:00:00 19.1 39 Norte 64 Nordeste 0 946.8 0.7 31
2019-07-29 07:00:00 19 36 Nordeste 53 Nordeste 0 946.3 0 25
2019-07-29 06:00:00 19.7 26 Norte 49 Norte 0 946.3 -0.2 33
2019-07-29 05:00:00 19.5 32 Norte 47 Norte 0 946.1 -0.4 50
2019-07-29 04:00:00 20.9 30 Norte 50 Norte 0 946.3 -0.2 46
2019-07-29 03:00:00 20.8 31 Norte 53 Noroeste 0 946.5 -0.2 56
2019-07-29 02:00:00 21.3 29 Norte 52 Norte 0 946.5 -0.2 54
2019-07-29 01:00:00 22.3 32 Norte 45 Norte 0 946.5 0.7 54
2019-07-29 00:00:00 22.9 15 Norte 28 Norte 0 946.7 1.5 55
2019-07-28 23:00:00 23.9 3 Oeste 16 Norte 0 946.7 1.9 43
2019-07-28 22:00:00 25.6 10 Noroeste 22 Norte 0 945.8 1.2 40
2019-07-28 21:00:00 27.5 11 Norte 23 Norte 0 945.2 0.2 37
2019-07-28 20:00:00 29.2 14 Norte 23 Norte 0 944.8 -0.4 31
2019-07-28 19:00:00 29.9 6 Sudoeste 15 Sudoeste 0 944.6 -1.1 32
2019-07-28 18:00:00 29.1 10 Sudoeste 21 Sudoeste 0 945 -1.2 33
2019-07-28 17:00:00 31.7 11 Sudoeste 23 Sudoeste 0 945.2 -1.3 28
2019-07-28 16:00:00 29.6 9 Oeste 20 Sur 0 945.7 -1.2 31
2019-07-28 15:00:00 28.4 9 Sur 20 Sur 0 946.2 -0.6 34
2019-07-28 14:00:00 27.8 8 Noroeste 19 Sudoeste 0 946.5 -0.4 37
2019-07-28 13:00:00 25.8 7 Oeste 17 Oeste 0 946.9 0 43
2019-07-28 12:00:00 24.4 4 Sudoeste 13 Sudeste 0 946.8 0.2 49
2019-07-28 11:00:00 22.7 5 Sudoeste 15 Sudoeste 0 946.9 0.5 55
2019-07-28 10:00:00 21.5 9 Sudoeste 13 Sudoeste 0 946.9 0.7 60
2019-07-28 09:00:00 19 3 Nordeste 8 Nordeste 0 946.6 0.7 70
2019-07-28 08:00:00 16.8 5 Norte 14 Norte 0 946.4 0.5 76
2019-07-28 07:00:00 16.7 9 Nordeste 21 Norte 0 946.2 0.2 76
2019-07-28 06:00:00 16.6 16 Norte 34 Norte 0 945.9 -0.5 79
2019-07-28 05:00:00 16.4 22 Norte 41 Nordeste 0 945.9 -0.9 82
2019-07-28 04:00:00 16.3 30 Norte 42 Nordeste 0 946 -0.9 84
2019-07-28 03:00:00 16.7 21 Norte 38 Nordeste 0 946.4 -0.7 84
2019-07-28 02:00:00 17.4 19 Norte 32 Norte 0 946.8 -0.2 80
2019-07-28 01:00:00 17.7 20 Norte 35 Norte 0 946.9 0.3 78
2019-07-28 00:00:00 18.1 22 Norte 33 Norte 0 947.1 0.7 75
2019-07-27 23:00:00 18.4 23 Norte 29 Norte 0 947 0.8 73
2019-07-26 12:00:00 22.5 12 Noroeste 22 Noroeste 0 950.1 0.3 35
2019-07-26 11:00:00 21.7 4 Sudeste 16 Nordeste 0 950.1 1 46
2019-07-26 10:00:00 17.7 13 Nordeste 29 Norte 0 950.1 1.1 59
2019-07-26 09:00:00 15.7 22 Norte 49 Norte 0 949.8 1.3 71
2019-07-26 08:00:00 15.9 14 Norte 33 Nordeste 0 949.1 0.6 76
2019-07-26 07:00:00 15.9 -- -- -- -- 0 949 0.1 81
2019-07-26 06:00:00 16.8 21 Norte 52 Nordeste 0 948.5 -0.6 85
2019-07-26 05:00:00 17.7 24 Norte 45 Norte 0 948.5 -0.7 87
2019-07-26 04:00:00 18.4 28 Norte 55 Norte 0 948.9 -0.6 85
2019-07-26 03:00:00 19.5 37 Norte 57 Norte 0 949.1 -0.3 80
2019-07-26 02:00:00 20.1 39 Norte 60 Norte 0 949.2 0.2 80
2019-07-26 01:00:00 21.2 31 Norte 49 Norte 0 949.5 0.6 77
2019-07-26 00:00:00 22.1 31 Norte 53 Norte 0 949.4 0.8 74
2019-07-25 23:00:00 24.5 25 Norte 39 Norte 0 949 0.6 55
2019-07-25 22:00:00 26.5 10 Noroeste 24 Noroeste 0 948.9 0.7 33
2019-07-25 21:00:00 29.2 14 Noroeste 32 Oeste 0 948.6 0.1 20
2019-07-25 20:00:00 31.6 13 Oeste 30 Noroeste 0 948.4 -0.3 29
2019-07-25 19:00:00 32 13 Noroeste 31 Sur 0 948.2 -0.8 30
2019-07-25 18:00:00 34 12 Sudoeste 31 Oeste 0 948.5 -0.9 25
2019-07-25 17:00:00 34 15 Sudoeste 32 Sudoeste 0 948.7 -1 23
2019-07-25 16:00:00 33.8 8 Sudoeste 33 Sudoeste 0 949 -0.8 22
2019-07-25 15:00:00 34.1 12 Sudoeste 26 Sudoeste 0 949.4 -0.4 19
2019-07-25 14:00:00 32.4 9 Sur 23 Sudoeste 0 949.7 -0.3 25
2019-07-25 13:00:00 31.5 8 Sudoeste 22 Sudoeste 0 949.8 -0.1 30
2019-07-25 12:00:00 30.1 10 Sudoeste 19 Sudoeste 0 949.8 0.2 34
2019-07-25 11:00:00 28.4 5 Sudoeste 14 Sur 0 950 0.8 39
2019-07-25 10:00:00 26.7 7 Sudoeste 12 Sur 0 949.9 0.9 42
2019-07-25 09:00:00 23.3 0 Calma 11 Nordeste 0 949.6 0.9 49
2019-07-25 08:00:00 20.2 4 Norte 12 Nordeste 0 949.2 0.1 53
2019-07-25 07:00:00 19.9 5 Nordeste 10 Nordeste 0 949 -0.2 53
2019-07-25 06:00:00 19.9 0 Calma 10 Nordeste 0 948.7 -0.8 55
2019-07-25 05:00:00 19.8 5 Norte 6 Nordeste 0 949.1 -0.5 58
2019-07-25 04:00:00 21 4 Nordeste 7 Este 0 949.2 -0.2 52
2019-07-25 03:00:00 22.8 4 Este 11 Norte 0 949.5 -0.1 53
2019-07-25 02:00:00 24.7 5 Sudoeste 35 Norte 0 949.6 0.3 36
2019-07-25 01:00:00 25.7 13 Norte 23 Norte 0 949.4 0.5 34
2019-07-25 00:00:00 25.1 6 Noroeste 14 Noroeste 0 949.6 1.4 46
2019-07-24 23:00:00 26.8 7 Noroeste 18 Oeste 0 949.3 1.5 44
2019-07-24 22:00:00 28.5 9 Sudoeste 24 Sudoeste 0 948.9 1.1 39
2019-07-24 21:00:00 30.6 12 Sudoeste 27 Sudoeste 0 948.2 0.1 34
2019-07-24 20:00:00 32.7 13 Sudoeste 30 Sudoeste 0 947.8 -0.6 31
2019-07-24 19:00:00 34 17 Sudoeste 31 Sudoeste 0 947.8 -0.7 29
2019-07-24 18:00:00 35.1 19 Sudoeste -- -- 0 948.1 -0.9 27
2019-07-24 17:00:00 36.4 5 Sur 24 Sudoeste 0 948.4 -1.2 22
2019-07-24 16:00:00 36.5 12 Oeste 26 Sudoeste 0 948.5 -1.4 22
2019-07-24 15:00:00 34.9 12 Sudoeste 29 Sur 0 949 -1.1 26
2019-07-24 14:00:00 34.4 10 Sudoeste 23 Sur 0 949.6 -0.5 29
2019-07-24 13:00:00 33.3 8 Sudoeste 20 Sur 0 949.9 0 31
2019-07-24 12:00:00 31.4 6 Sur 16 Sudoeste 0 950.1 0.5 35
2019-07-24 11:00:00 30 10 Sudoeste 17 Sudoeste 0 950.1 0.6 39
2019-07-24 10:00:00 28.9 3 Sudoeste 7 Sur 0 949.9 0.5 42
2019-07-24 09:00:00 24.4 5 Nordeste 8 Nordeste 0 949.6 0.4 52
2019-07-24 08:00:00 21.8 4 Noroeste 7 Noroeste 0 949.5 0 54
2019-07-24 07:00:00 23.1 7 Nordeste 9 Nordeste 0 949.4 -0.4 48
2019-07-24 06:00:00 23.9 0 Calma 10 Nordeste 0 949.2 -1.2 45
2019-07-24 05:00:00 25.1 4 Nordeste 13 Nordeste 0 949.5 -1.2 43
2019-07-24 04:00:00 24.7 8 Norte 17 Nordeste 0 949.8 -1.1 48
2019-07-24 03:00:00 24 6 Oeste 34 Nordeste 0 950.4 -0.3 53
2019-07-24 02:00:00 25 23 Norte 36 Nordeste 0 950.7 0.4 50
2019-07-24 01:00:00 23.9 2 Oeste 9 Nordeste 0 950.9 1.1 61
2019-07-24 00:00:00 24.6 4 Noroeste 7 Noroeste 0 950.7 1.2 61
2019-07-23 23:00:00 25.6 4 Nordeste 11 Noroeste 0 950.3 0.8 57
2019-07-23 22:00:00 27 6 Noroeste 25 Oeste 0 949.8 0.6 51
2019-07-23 21:00:00 29.8 8 Oeste 24 Oeste 0 949.5 0.1 44
2019-07-23 20:00:00 31.9 16 Sudoeste 31 Sudoeste 0 949.5 -0.1 38
2019-07-23 19:00:00 33.8 15 Sudoeste 28 Sudoeste 0 949.2 -0.8 33
2019-07-23 18:00:00 34.7 14 Oeste 32 Sudoeste 0 949.4 -0.7 30
2019-07-23 17:00:00 35.6 18 Sudoeste 26 Sudoeste 0 949.6 -1.1 27
2019-07-23 16:00:00 35.4 13 Sudoeste 26 Sur 0 950 -0.8 30
2019-07-23 15:00:00 34.9 9 Oeste -- -- 0 950.1 -1 32
2019-07-23 14:00:00 34.1 12 Oeste 27 Sudoeste 0 950.7 -0.5 33
2019-07-23 13:00:00 32 8 Sudoeste 18 Sur 0 950.8 -0.3 37
2019-07-23 12:00:00 29.8 3 Este 15 Sur 0 951.1 0.2 41
2019-07-23 11:00:00 27.3 5 Sur 14 Sudoeste 0 951.2 0.7 55
2019-07-23 10:00:00 25.1 6 Sudoeste 14 Oeste 0 951.1 0.7 61
2019-07-23 09:00:00 22.4 6 Oeste 12 Oeste 0 950.9 0.7 68
2019-07-23 08:00:00 19.7 3 Noroeste 8 Noroeste 0 950.5 -0.1 63
2019-07-23 07:00:00 20 4 Noroeste 8 Oeste 0 950.4 0.3 63
2019-07-23 06:00:00 20.6 2 Noroeste 9 Nordeste 0 950.2 -0.6 60
2019-07-23 05:00:00 21.4 4 Este 6 Este 0 950.6 -0.9 58
2019-07-23 04:00:00 21.7 4 Este 7 Sudoeste 0 950.1 -1.8 59
2019-07-23 03:00:00 21.9 4 Nordeste 7 Noroeste 0 950.8 -0.8 58
2019-07-23 02:00:00 23 3 Norte 8 Norte 0 951.5 0.8 68
2019-07-23 01:00:00 24.5 3 Oeste 16 Sudoeste 0 951.9 1.8 63
2019-07-23 00:00:00 26.6 9 Sudoeste 21 Sudoeste 0 951.6 1.4 57
2019-07-22 23:00:00 28.6 8 Noroeste 14 Noroeste 0 950.7 0.8 47
2019-07-22 22:00:00 29.8 7 Noroeste 21 Noroeste 0 950.1 0.2 45
2019-07-22 21:00:00 31.3 11 Oeste 31 Sudoeste 0 950.2 -0.2 43
2019-07-22 20:00:00 33.9 13 Sudoeste 30 Sudoeste 0 949.9 -1.3 37
2019-07-22 19:00:00 36.6 8 Sudoeste 24 Sur 0 949.9 -1.6 25
2019-07-22 18:00:00 36.4 12 Sur 27 Sur 0 950.4 -1.7 26
2019-07-22 17:00:00 36.7 16 Sur -- -- 0 951.2 -1.1 26
2019-07-22 16:00:00 37 12 Sur 25 Sudoeste 0 951.5 -1.4 24
2019-07-22 15:00:00 36.2 11 Sudoeste 27 Sudoeste 0 952.1 -0.9 25
2019-07-22 14:00:00 35.7 10 Sudeste 26 Sur 0 952.3 -0.6 24
2019-07-22 13:00:00 34 9 Sudoeste 17 Sudoeste 0 952.9 0.3 28
2019-07-22 12:00:00 32 10 Sudoeste 19 Sudoeste 0 953 0.5 32
2019-07-22 11:00:00 29.9 4 Sudoeste 13 Sudoeste 0 952.9 0.4 36
2019-07-22 10:00:00 27.3 2 Sur 5 Sur 0 952.6 0 43
2019-07-22 09:00:00 22.3 3 Nordeste 6 Norte 0 952.5 -0.1 54
2019-07-22 08:00:00 19.6 5 Nordeste 10 Nordeste 0 952.5 -0.5 62
2019-07-22 07:00:00 19.1 3 Noroeste 7 Nordeste 0 952.6 -0.4 69
2019-07-22 06:00:00 19.9 6 Nordeste 10 Nordeste 0 952.6 -0.7 66
2019-07-22 05:00:00 20.3 5 Nordeste 8 Nordeste 0 953 -0.4 59
2019-07-22 04:00:00 21.1 6 Nordeste 9 Nordeste 0 953 0.3 57
2019-07-22 03:00:00 22.6 4 Nordeste 9 Nordeste 0 953.3 0.8 52
2019-07-22 02:00:00 24.5 4 Este 14 Este 0 953.4 1.1 47
2019-07-22 01:00:00 27.4 9 Sur 30 Norte 0 952.7 1.2 33
2019-07-22 00:00:00 29 15 Norte 27 Noroeste 0 952.5 1.5 22
2019-07-21 23:00:00 28.8 4 Noroeste 23 Norte 0 952.3 1.5 22
2019-07-21 22:00:00 30.6 15 Norte 24 Noroeste 0 951.5 0.7 19
2019-07-21 21:00:00 33 11 Norte 26 Noroeste 0 951 0 17
2019-07-21 20:00:00 35.5 10 Noroeste 24 Noroeste 0 950.8 -0.4 15
2019-07-21 19:00:00 36.5 11 Noroeste 26 Oeste 0 950.8 -0.8 15
2019-07-21 18:00:00 37.3 13 Oeste -- -- 0 951 -0.9 15
2019-07-21 17:00:00 37.8 11 Sudoeste 25 Sur 0 951.2 -1.1 16
2019-07-21 16:00:00 38.1 11 Oeste 29 Sudoeste 0 951.6 -0.8 16
2019-07-21 15:00:00 37.3 9 Oeste 26 Sur 0 951.9 -0.4 16
2019-07-21 14:00:00 36.4 10 Sudoeste 25 Sudoeste 0 952.3 0.1 17
2019-07-21 13:00:00 35.3 11 Sudoeste 19 Sudoeste 0 952.4 0.3 16
2019-07-21 12:00:00 33.4 4 Sudoeste 13 Sudoeste 0 952.3 0.5 17
2019-07-21 11:00:00 31.5 3 Sur 9 Sur 0 952.2 0.6 21
2019-07-21 10:00:00 28.6 3 Sudoeste 6 Sur 0 952.1 0.7 26
2019-07-21 09:00:00 24 3 Nordeste 7 Noroeste 0 951.8 0.8 30
2019-07-21 08:00:00 22.8 5 Nordeste 11 Oeste 0 951.6 1 28
2019-07-21 07:00:00 25 6 Oeste 31 Nordeste 0 951.4 0.8 28
2019-07-21 06:00:00 25.6 14 Norte 41 Nordeste 0 951 0.1 21
2019-07-21 05:00:00 25.5 26 Norte 47 Nordeste 0 950.6 -0.4 23
2019-07-21 04:00:00 25.2 32 Norte 50 Nordeste 0 950.6 -0.4 27
2019-07-21 03:00:00 24.9 31 Norte 49 Nordeste 0 950.9 0.1 35
2019-07-21 02:00:00 25.9 26 Norte 55 Norte 0 951 0.7 27
2019-07-21 01:00:00 26.6 30 Norte 51 Norte 0 951 1.4 38
2019-07-21 00:00:00 28.1 31 Norte 45 Norte 0 950.8 1.6 35
2019-07-20 23:00:00 29.7 23 Norte 34 Norte 0 950.3 1.6 27
2019-07-20 22:00:00 30.5 16 Norte 27 Norte 0 949.6 1 23
2019-07-20 21:00:00 32 14 Norte 27 Norte 0 949.2 0.4 23
2019-07-20 20:00:00 34 13 Norte 25 Norte 0 948.7 -0.1 21
2019-07-20 19:00:00 35.2 12 Norte 30 Noroeste 0 948.6 -0.4 20
2019-07-20 18:00:00 35.9 -- -- -- -- 0 948.8 -0.4 19
2019-07-20 17:00:00 37.4 13 Oeste 27 Sudoeste 0 948.8 -0.6 18
2019-07-20 16:00:00 36.7 14 Sudoeste 28 Sudoeste 0 949 -0.5 19
2019-07-20 15:00:00 36.6 14 Sudoeste 29 Sudoeste 0 949.2 -0.4 20
2019-07-20 14:00:00 35.8 13 Sudoeste 26 Sudoeste 0 949.4 -0.1 22
2019-07-20 13:00:00 34.5 11 Sudoeste 19 Sur 0 949.5 0.3 23
2019-07-20 12:00:00 32.9 7 Sudoeste 15 Sudoeste 0 949.6 0.8 25
2019-07-20 11:00:00 30.7 10 Sudoeste 15 Sudoeste 0 949.5 0.8 31
2019-07-20 10:00:00 29 2 Sudoeste 5 Sur 0 949.2 0.7 38
2019-07-20 09:00:00 23.9 2 Nordeste 6 Nordeste 0 948.8 0.5 51
2019-07-20 08:00:00 20.9 3 Noroeste 5 Nordeste 0 948.7 0.4 54
2019-07-20 07:00:00 20.6 2 Este 6 Noroeste 0 948.5 0.2 53
2019-07-20 06:00:00 21 4 Noroeste 9 Nordeste 0 948.3 0 54
2019-07-20 05:00:00 22 3 Oeste 10 Nordeste 0 948.3 0.6 54
2019-07-20 04:00:00 23 8 Nordeste 12 Nordeste 0 948.3 1 53
2019-07-20 03:00:00 25.2 3 Norte 27 Nordeste 0 948.3 0.9 46
2019-07-20 02:00:00 26.4 24 Nordeste 46 Nordeste 0 947.7 0.2 44
2019-07-20 01:00:00 27.4 25 Norte 41 Norte 0 947.3 0.5 41
2019-07-20 00:00:00 28.2 17 Norte 30 Noroeste 0 947.4 1.2 37
2019-07-19 23:00:00 28.2 8 Norte 13 Norte 0 947.5 1.5 30
2019-07-19 22:00:00 30.5 4 Oeste 20 Oeste 0 946.8 0.8 28
2019-07-19 21:00:00 33.1 13 Sudoeste 31 Oeste 0 946.2 0 24
2019-07-19 20:00:00 35.7 12 Sudoeste 26 Sudoeste 0 946 -0.6 21
2019-07-19 19:00:00 37.8 6 Sudoeste 17 Sudeste 0 946 -1.1 13
2019-07-19 18:00:00 37.5 7 Sur 23 Sur 0 946.2 -1.4 13
2019-07-19 17:00:00 38 4 Sur 22 Sur 0 946.6 -1.5 14
2019-07-19 16:00:00 37.7 8 Sudoeste 27 Sur 0 947.1 -1.6 16
2019-07-19 15:00:00 36.5 12 Sudeste 30 Sur 0 947.6 -1.3 19
2019-07-19 14:00:00 36 10 Sur 22 Sur 0 948.1 -0.8 19
2019-07-19 13:00:00 34.3 8 Sur 20 Sur 0 948.7 -0.2 26
2019-07-19 12:00:00 33.3 7 Sudeste 18 Sur 0 948.9 0.3 28
2019-07-19 11:00:00 31.6 6 Sudeste 15 Sur 0 948.9 0.6 30
2019-07-19 10:00:00 29.7 5 Sur 11 Sudeste 0 948.9 0.9 29
2019-07-19 09:00:00 25.3 0 Calma 9 Nordeste 0 948.6 0.8 40
2019-07-19 08:00:00 24.4 4 Nordeste 13 Norte 0 948.3 0.4 36
2019-07-19 07:00:00 25.7 9 Nordeste 25 Nordeste 0 948 0 31
2019-07-19 06:00:00 25.9 15 Norte 32 Norte 0 947.8 -0.5 34
2019-07-19 05:00:00 25.8 21 Norte 31 Norte 0 947.9 -0.7 35
2019-07-19 04:00:00 25.7 22 Norte 39 Norte 0 948 -1 36
2019-07-19 03:00:00 25.6 28 Norte 42 Nordeste 0 948.3 -0.9 38
2019-07-19 02:00:00 26.5 22 Norte 39 Nordeste 0 948.6 -0.3 38
2019-07-19 01:00:00 23.9 4 Nordeste 11 Norte 0 949 0.4 50
2019-07-19 00:00:00 25.1 3 Oeste 6 Noroeste 0 949.2 1.2 48